sensor_id;sensor_type;location;lat;lon;timestamp;P1;durP1;ratioP1;P2;durP2;ratioP2
6665;SDS011;3369;49.906;8.598;2024-02-04T00:00:14;1.53;;;1.50;;
6665;SDS011;3369;49.906;8.598;2024-02-04T00:02:40;1.70;;;1.60;;
6665;SDS011;3369;49.906;8.598;2024-02-04T00:05:05;2.00;;;1.90;;
6665;SDS011;3369;49.906;8.598;2024-02-04T00:07:31;2.50;;;2.00;;
6665;SDS011;3369;49.906;8.598;2024-02-04T00:09:57;1.80;;;1.70;;
6665;SDS011;3369;49.906;8.598;2024-02-04T00:12:22;1.90;;;1.80;;
6665;SDS011;3369;49.906;8.598;2024-02-04T00:14:48;2.03;;;1.83;;
6665;SDS011;3369;49.906;8.598;2024-02-04T00:17:16;1.80;;;1.70;;
6665;SDS011;3369;49.906;8.598;2024-02-04T00:19:42;1.90;;;1.80;;
6665;SDS011;3369;49.906;8.598;2024-02-04T00:22:08;1.80;;;1.70;;
6665;SDS011;3369;49.906;8.598;2024-02-04T00:24:34;1.73;;;1.60;;
6665;SDS011;3369;49.906;8.598;2024-02-04T00:26:59;1.90;;;1.80;;
6665;SDS011;3369;49.906;8.598;2024-02-04T00:29:25;2.30;;;1.75;;
6665;SDS011;3369;49.906;8.598;2024-02-04T00:31:50;1.80;;;1.70;;
6665;SDS011;3369;49.906;8.598;2024-02-04T00:34:16;1.80;;;1.70;;
6665;SDS011;3369;49.906;8.598;2024-02-04T00:36:42;1.70;;;1.60;;
6665;SDS011;3369;49.906;8.598;2024-02-04T00:39:07;2.60;;;1.60;;
6665;SDS011;3369;49.906;8.598;2024-02-04T00:41:33;1.67;;;1.58;;
6665;SDS011;3369;49.906;8.598;2024-02-04T00:43:59;1.73;;;1.63;;
6665;SDS011;3369;49.906;8.598;2024-02-04T00:46:25;1.50;;;1.50;;
6665;SDS011;3369;49.906;8.598;2024-02-04T00:48:51;1.65;;;1.55;;
6665;SDS011;3369;49.906;8.598;2024-02-04T00:51:17;1.87;;;1.77;;
6665;SDS011;3369;49.906;8.598;2024-02-04T00:53:43;2.50;;;1.80;;
6665;SDS011;3369;49.906;8.598;2024-02-04T00:56:08;1.73;;;1.63;;
6665;SDS011;3369;49.906;8.598;2024-02-04T00:58:36;1.75;;;1.65;;
6665;SDS011;3369;49.906;8.598;2024-02-04T01:01:01;2.33;;;1.60;;
6665;SDS011;3369;49.906;8.598;2024-02-04T01:03:27;1.63;;;1.53;;
6665;SDS011;3369;49.906;8.598;2024-02-04T01:05:54;2.00;;;1.60;;
6665;SDS011;3369;49.906;8.598;2024-02-04T01:08:20;1.70;;;1.60;;
6665;SDS011;3369;49.906;8.598;2024-02-04T01:10:46;1.60;;;1.50;;
6665;SDS011;3369;49.906;8.598;2024-02-04T01:13:12;1.70;;;1.50;;
6665;SDS011;3369;49.906;8.598;2024-02-04T01:15:38;1.60;;;1.50;;
6665;SDS011;3369;49.906;8.598;2024-02-04T01:18:03;1.50;;;1.40;;
6665;SDS011;3369;49.906;8.598;2024-02-04T01:20:29;1.60;;;1.50;;
6665;SDS011;3369;49.906;8.598;2024-02-04T01:22:54;1.42;;;1.33;;
6665;SDS011;3369;49.906;8.598;2024-02-04T01:25:20;1.20;;;1.10;;
6665;SDS011;3369;49.906;8.598;2024-02-04T01:27:45;1.25;;;1.25;;
6665;SDS011;3369;49.906;8.598;2024-02-04T01:30:11;1.20;;;1.20;;
6665;SDS011;3369;49.906;8.598;2024-02-04T01:32:37;1.07;;;1.07;;
6665;SDS011;3369;49.906;8.598;2024-02-04T01:35:02;1.23;;;1.13;;
6665;SDS011;3369;49.906;8.598;2024-02-04T01:37:28;1.25;;;1.15;;
6665;SDS011;3369;49.906;8.598;2024-02-04T01:39:54;1.20;;;1.10;;
6665;SDS011;3369;49.906;8.598;2024-02-04T01:42:19;1.10;;;1.10;;
6665;SDS011;3369;49.906;8.598;2024-02-04T01:44:45;1.17;;;1.17;;
6665;SDS011;3369;49.906;8.598;2024-02-04T01:47:11;1.10;;;1.00;;
6665;SDS011;3369;49.906;8.598;2024-02-04T01:49:37;1.20;;;1.20;;
6665;SDS011;3369;49.906;8.598;2024-02-04T01:52:03;1.10;;;1.10;;
6665;SDS011;3369;49.906;8.598;2024-02-04T01:54:31;1.80;;;1.10;;
6665;SDS011;3369;49.906;8.598;2024-02-04T01:56:58;1.50;;;1.40;;
6665;SDS011;3369;49.906;8.598;2024-02-04T01:59:26;1.17;;;1.08;;
6665;SDS011;3369;49.906;8.598;2024-02-04T02:01:55;1.23;;;1.13;;
6665;SDS011;3369;49.906;8.598;2024-02-04T02:04:27;1.50;;;1.40;;
6665;SDS011;3369;49.906;8.598;2024-02-04T02:06:54;1.52;;;1.42;;
6665;SDS011;3369;49.906;8.598;2024-02-04T02:09:20;1.50;;;1.40;;
6665;SDS011;3369;49.906;8.598;2024-02-04T02:11:54;1.87;;;1.77;;
6665;SDS011;3369;49.906;8.598;2024-02-04T02:14:30;2.10;;;1.67;;
6665;SDS011;3369;49.906;8.598;2024-02-04T02:17:00;1.90;;;1.80;;
6665;SDS011;3369;49.906;8.598;2024-02-04T02:22:24;1.90;;;1.80;;
6665;SDS011;3369;49.906;8.598;2024-02-04T02:24:57;1.90;;;1.80;;
6665;SDS011;3369;49.906;8.598;2024-02-04T02:27:24;1.80;;;1.70;;
6665;SDS011;3369;49.906;8.598;2024-02-04T02:29:51;1.80;;;1.70;;
6665;SDS011;3369;49.906;8.598;2024-02-04T02:32:18;1.80;;;1.60;;
6665;SDS011;3369;49.906;8.598;2024-02-04T02:34:44;1.70;;;1.60;;
6665;SDS011;3369;49.906;8.598;2024-02-04T02:42:36;1.90;;;1.80;;
6665;SDS011;3369;49.906;8.598;2024-02-04T02:45:04;2.17;;;2.00;;
6665;SDS011;3369;49.906;8.598;2024-02-04T02:47:31;2.25;;;2.05;;
6665;SDS011;3369;49.906;8.598;2024-02-04T02:49:58;2.10;;;2.00;;
6665;SDS011;3369;49.906;8.598;2024-02-04T02:52:25;2.28;;;1.77;;
6665;SDS011;3369;49.906;8.598;2024-02-04T02:54:51;2.00;;;1.90;;
6665;SDS011;3369;49.906;8.598;2024-02-04T02:57:16;2.20;;;2.00;;
6665;SDS011;3369;49.906;8.598;2024-02-04T02:59:42;2.13;;;1.93;;
6665;SDS011;3369;49.906;8.598;2024-02-04T03:02:08;2.55;;;2.08;;
6665;SDS011;3369;49.906;8.598;2024-02-04T03:04:33;2.30;;;2.10;;
6665;SDS011;3369;49.906;8.598;2024-02-04T03:06:59;2.07;;;1.87;;
6665;SDS011;3369;49.906;8.598;2024-02-04T03:09:25;1.90;;;1.80;;
6665;SDS011;3369;49.906;8.598;2024-02-04T03:11:50;2.50;;;2.00;;
6665;SDS011;3369;49.906;8.598;2024-02-04T03:14:16;1.90;;;1.80;;
6665;SDS011;3369;49.906;8.598;2024-02-04T03:16:45;2.83;;;2.00;;
6665;SDS011;3369;49.906;8.598;2024-02-04T03:19:10;2.08;;;1.90;;
6665;SDS011;3369;49.906;8.598;2024-02-04T03:21:36;2.10;;;2.00;;
6665;SDS011;3369;49.906;8.598;2024-02-04T03:24:02;2.10;;;2.00;;
6665;SDS011;3369;49.906;8.598;2024-02-04T03:26:27;2.40;;;2.20;;
6665;SDS011;3369;49.906;8.598;2024-02-04T03:28:53;2.20;;;2.10;;
6665;SDS011;3369;49.906;8.598;2024-02-04T03:31:19;2.28;;;2.13;;
6665;SDS011;3369;49.906;8.598;2024-02-04T03:33:46;1.98;;;1.88;;
6665;SDS011;3369;49.906;8.598;2024-02-04T03:36:11;2.33;;;2.22;;
6665;SDS011;3369;49.906;8.598;2024-02-04T03:38:39;2.00;;;1.90;;
6665;SDS011;3369;49.906;8.598;2024-02-04T03:41:05;2.10;;;2.00;;
6665;SDS011;3369;49.906;8.598;2024-02-04T03:43:30;2.17;;;2.00;;
6665;SDS011;3369;49.906;8.598;2024-02-04T03:45:56;2.37;;;2.17;;
6665;SDS011;3369;49.906;8.598;2024-02-04T03:48:22;1.83;;;1.73;;
6665;SDS011;3369;49.906;8.598;2024-02-04T03:50:47;2.10;;;2.00;;
6665;SDS011;3369;49.906;8.598;2024-02-04T03:53:13;2.30;;;2.10;;
6665;SDS011;3369;49.906;8.598;2024-02-04T03:55:38;2.03;;;1.93;;
6665;SDS011;3369;49.906;8.598;2024-02-04T03:58:04;1.90;;;1.80;;
6665;SDS011;3369;49.906;8.598;2024-02-04T04:00:29;1.90;;;1.80;;
6665;SDS011;3369;49.906;8.598;2024-02-04T04:02:55;2.00;;;1.90;;
6665;SDS011;3369;49.906;8.598;2024-02-04T04:05:20;1.60;;;1.50;;
6665;SDS011;3369;49.906;8.598;2024-02-04T04:07:47;1.70;;;1.60;;
6665;SDS011;3369;49.906;8.598;2024-02-04T04:10:12;1.80;;;1.70;;
6665;SDS011;3369;49.906;8.598;2024-02-04T04:12:38;1.70;;;1.60;;
6665;SDS011;3369;49.906;8.598;2024-02-04T04:15:04;1.60;;;1.50;;
6665;SDS011;3369;49.906;8.598;2024-02-04T04:17:30;1.42;;;1.40;;
6665;SDS011;3369;49.906;8.598;2024-02-04T04:19:55;2.13;;;1.50;;
6665;SDS011;3369;49.906;8.598;2024-02-04T04:22:21;2.57;;;1.53;;
6665;SDS011;3369;49.906;8.598;2024-02-04T04:24:46;1.25;;;1.15;;
6665;SDS011;3369;49.906;8.598;2024-02-04T04:27:12;1.30;;;1.20;;
6665;SDS011;3369;49.906;8.598;2024-02-04T04:29:37;1.70;;;1.40;;
6665;SDS011;3369;49.906;8.598;2024-02-04T04:32:03;1.20;;;1.20;;
6665;SDS011;3369;49.906;8.598;2024-02-04T04:34:29;1.20;;;1.20;;
6665;SDS011;3369;49.906;8.598;2024-02-04T04:36:55;1.08;;;1.05;;
6665;SDS011;3369;49.906;8.598;2024-02-04T04:39:20;1.40;;;1.30;;
6665;SDS011;3369;49.906;8.598;2024-02-04T04:41:46;1.40;;;1.30;;
6665;SDS011;3369;49.906;8.598;2024-02-04T04:44:11;1.38;;;1.27;;
6665;SDS011;3369;49.906;8.598;2024-02-04T04:46:38;1.47;;;1.37;;
6665;SDS011;3369;49.906;8.598;2024-02-04T04:49:04;1.27;;;1.27;;
6665;SDS011;3369;49.906;8.598;2024-02-04T04:51:30;1.40;;;1.33;;
6665;SDS011;3369;49.906;8.598;2024-02-04T04:53:56;2.30;;;1.47;;
6665;SDS011;3369;49.906;8.598;2024-02-04T04:56:21;1.50;;;1.40;;
6665;SDS011;3369;49.906;8.598;2024-02-04T04:58:47;1.60;;;1.50;;
6665;SDS011;3369;49.906;8.598;2024-02-04T05:01:13;1.60;;;1.50;;
6665;SDS011;3369;49.906;8.598;2024-02-04T05:03:39;1.40;;;1.30;;
6665;SDS011;3369;49.906;8.598;2024-02-04T05:06:05;1.48;;;1.40;;
6665;SDS011;3369;49.906;8.598;2024-02-04T05:08:31;1.40;;;1.30;;
6665;SDS011;3369;49.906;8.598;2024-02-04T05:10:56;1.40;;;1.40;;
6665;SDS011;3369;49.906;8.598;2024-02-04T05:13:22;2.15;;;1.58;;
6665;SDS011;3369;49.906;8.598;2024-02-04T05:15:47;1.40;;;1.30;;
6665;SDS011;3369;49.906;8.598;2024-02-04T05:18:13;1.58;;;1.40;;
6665;SDS011;3369;49.906;8.598;2024-02-04T05:20:38;1.60;;;1.50;;
6665;SDS011;3369;49.906;8.598;2024-02-04T05:23:04;1.40;;;1.30;;
6665;SDS011;3369;49.906;8.598;2024-02-04T05:25:29;1.33;;;1.33;;
6665;SDS011;3369;49.906;8.598;2024-02-04T05:27:56;1.40;;;1.30;;
6665;SDS011;3369;49.906;8.598;2024-02-04T05:30:22;1.20;;;1.20;;
6665;SDS011;3369;49.906;8.598;2024-02-04T05:32:47;1.13;;;1.02;;
6665;SDS011;3369;49.906;8.598;2024-02-04T05:35:13;1.00;;;1.00;;
6665;SDS011;3369;49.906;8.598;2024-02-04T05:37:38;1.00;;;1.00;;
6665;SDS011;3369;49.906;8.598;2024-02-04T05:40:04;0.80;;;0.80;;
6665;SDS011;3369;49.906;8.598;2024-02-04T05:42:30;0.90;;;0.90;;
6665;SDS011;3369;49.906;8.598;2024-02-04T05:44:57;0.90;;;0.90;;
6665;SDS011;3369;49.906;8.598;2024-02-04T05:47:22;0.80;;;0.80;;
6665;SDS011;3369;49.906;8.598;2024-02-04T05:49:48;0.93;;;0.93;;
6665;SDS011;3369;49.906;8.598;2024-02-04T05:52:14;0.90;;;0.90;;
6665;SDS011;3369;49.906;8.598;2024-02-04T05:54:40;0.80;;;0.80;;
6665;SDS011;3369;49.906;8.598;2024-02-04T05:57:05;0.93;;;0.80;;
6665;SDS011;3369;49.906;8.598;2024-02-04T05:59:32;0.80;;;0.80;;
6665;SDS011;3369;49.906;8.598;2024-02-04T06:01:58;0.80;;;0.80;;
6665;SDS011;3369;49.906;8.598;2024-02-04T06:04:23;0.83;;;0.80;;
6665;SDS011;3369;49.906;8.598;2024-02-04T06:06:49;0.98;;;0.90;;
6665;SDS011;3369;49.906;8.598;2024-02-04T06:09:14;0.90;;;0.90;;
6665;SDS011;3369;49.906;8.598;2024-02-04T06:11:40;0.70;;;0.70;;
6665;SDS011;3369;49.906;8.598;2024-02-04T06:14:09;0.80;;;0.80;;
6665;SDS011;3369;49.906;8.598;2024-02-04T06:16:34;0.80;;;0.80;;
6665;SDS011;3369;49.906;8.598;2024-02-04T06:19:00;0.80;;;0.80;;
6665;SDS011;3369;49.906;8.598;2024-02-04T06:21:26;0.85;;;0.85;;
6665;SDS011;3369;49.906;8.598;2024-02-04T06:23:51;0.80;;;0.80;;
6665;SDS011;3369;49.906;8.598;2024-02-04T06:26:17;0.80;;;0.80;;
6665;SDS011;3369;49.906;8.598;2024-02-04T06:28:42;1.33;;;0.90;;
6665;SDS011;3369;49.906;8.598;2024-02-04T06:31:11;1.20;;;0.90;;
6665;SDS011;3369;49.906;8.598;2024-02-04T06:33:37;0.90;;;0.90;;
6665;SDS011;3369;49.906;8.598;2024-02-04T06:36:02;1.10;;;0.90;;
6665;SDS011;3369;49.906;8.598;2024-02-04T06:38:28;0.80;;;0.80;;
6665;SDS011;3369;49.906;8.598;2024-02-04T06:40:53;1.60;;;0.90;;
6665;SDS011;3369;49.906;8.598;2024-02-04T06:43:19;1.00;;;0.90;;
6665;SDS011;3369;49.906;8.598;2024-02-04T06:45:45;0.70;;;0.70;;
6665;SDS011;3369;49.906;8.598;2024-02-04T06:48:11;0.80;;;0.80;;
6665;SDS011;3369;49.906;8.598;2024-02-04T06:50:37;0.80;;;0.80;;
6665;SDS011;3369;49.906;8.598;2024-02-04T06:53:03;0.73;;;0.73;;
6665;SDS011;3369;49.906;8.598;2024-02-04T06:55:29;0.70;;;0.67;;
6665;SDS011;3369;49.906;8.598;2024-02-04T06:57:54;0.80;;;0.80;;
6665;SDS011;3369;49.906;8.598;2024-02-04T07:00:20;0.68;;;0.68;;
6665;SDS011;3369;49.906;8.598;2024-02-04T07:02:46;0.60;;;0.60;;
6665;SDS011;3369;49.906;8.598;2024-02-04T07:05:12;1.98;;;0.70;;
6665;SDS011;3369;49.906;8.598;2024-02-04T07:07:37;1.10;;;0.60;;
6665;SDS011;3369;49.906;8.598;2024-02-04T07:10:03;0.83;;;0.73;;
6665;SDS011;3369;49.906;8.598;2024-02-04T07:12:29;0.77;;;0.77;;
6665;SDS011;3369;49.906;8.598;2024-02-04T07:14:54;0.70;;;0.70;;
6665;SDS011;3369;49.906;8.598;2024-02-04T07:17:20;0.60;;;0.60;;
6665;SDS011;3369;49.906;8.598;2024-02-04T07:19:46;0.60;;;0.60;;
6665;SDS011;3369;49.906;8.598;2024-02-04T07:22:11;0.50;;;0.50;;
6665;SDS011;3369;49.906;8.598;2024-02-04T07:24:37;0.50;;;0.50;;
6665;SDS011;3369;49.906;8.598;2024-02-04T07:27:02;0.60;;;0.60;;
6665;SDS011;3369;49.906;8.598;2024-02-04T07:29:28;0.40;;;0.40;;
6665;SDS011;3369;49.906;8.598;2024-02-04T07:31:54;0.70;;;0.50;;
6665;SDS011;3369;49.906;8.598;2024-02-04T07:34:20;0.70;;;0.50;;
6665;SDS011;3369;49.906;8.598;2024-02-04T07:36:45;0.53;;;0.53;;
6665;SDS011;3369;49.906;8.598;2024-02-04T07:39:11;1.00;;;0.70;;
6665;SDS011;3369;49.906;8.598;2024-02-04T07:41:37;0.60;;;0.60;;
6665;SDS011;3369;49.906;8.598;2024-02-04T07:44:02;0.60;;;0.50;;
6665;SDS011;3369;49.906;8.598;2024-02-04T07:46:28;0.90;;;0.50;;
6665;SDS011;3369;49.906;8.598;2024-02-04T07:48:54;0.50;;;0.50;;
6665;SDS011;3369;49.906;8.598;2024-02-04T07:51:19;0.60;;;0.60;;
6665;SDS011;3369;49.906;8.598;2024-02-04T07:53:45;0.40;;;0.40;;
6665;SDS011;3369;49.906;8.598;2024-02-04T07:56:11;0.40;;;0.40;;
6665;SDS011;3369;49.906;8.598;2024-02-04T07:58:36;0.40;;;0.40;;
6665;SDS011;3369;49.906;8.598;2024-02-04T08:01:02;0.40;;;0.33;;
6665;SDS011;3369;49.906;8.598;2024-02-04T08:03:28;0.40;;;0.30;;
6665;SDS011;3369;49.906;8.598;2024-02-04T08:05:53;0.40;;;0.40;;
6665;SDS011;3369;49.906;8.598;2024-02-04T08:08:19;0.60;;;0.40;;
6665;SDS011;3369;49.906;8.598;2024-02-04T08:10:45;0.60;;;0.40;;
6665;SDS011;3369;49.906;8.598;2024-02-04T08:13:10;0.40;;;0.40;;
6665;SDS011;3369;49.906;8.598;2024-02-04T08:15:36;0.40;;;0.40;;
6665;SDS011;3369;49.906;8.598;2024-02-04T08:18:02;0.50;;;0.40;;
6665;SDS011;3369;49.906;8.598;2024-02-04T08:20:27;0.60;;;0.50;;
6665;SDS011;3369;49.906;8.598;2024-02-04T08:22:54;0.70;;;0.50;;
6665;SDS011;3369;49.906;8.598;2024-02-04T08:25:19;0.40;;;0.40;;
6665;SDS011;3369;49.906;8.598;2024-02-04T08:27:45;0.50;;;0.50;;
6665;SDS011;3369;49.906;8.598;2024-02-04T08:30:11;1.10;;;0.80;;
6665;SDS011;3369;49.906;8.598;2024-02-04T08:32:38;0.40;;;0.40;;
6665;SDS011;3369;49.906;8.598;2024-02-04T08:35:04;0.50;;;0.50;;
6665;SDS011;3369;49.906;8.598;2024-02-04T08:37:30;0.40;;;0.40;;
6665;SDS011;3369;49.906;8.598;2024-02-04T08:40:00;0.40;;;0.38;;
6665;SDS011;3369;49.906;8.598;2024-02-04T08:42:26;0.40;;;0.40;;
6665;SDS011;3369;49.906;8.598;2024-02-04T08:44:52;0.30;;;0.30;;
6665;SDS011;3369;49.906;8.598;2024-02-04T08:47:17;0.40;;;0.40;;
6665;SDS011;3369;49.906;8.598;2024-02-04T08:49:43;0.30;;;0.30;;
6665;SDS011;3369;49.906;8.598;2024-02-04T08:52:09;0.40;;;0.40;;
6665;SDS011;3369;49.906;8.598;2024-02-04T08:54:35;0.60;;;0.50;;
6665;SDS011;3369;49.906;8.598;2024-02-04T08:57:00;0.40;;;0.40;;
6665;SDS011;3369;49.906;8.598;2024-02-04T08:59:26;0.40;;;0.40;;
6665;SDS011;3369;49.906;8.598;2024-02-04T09:01:51;0.50;;;0.40;;
6665;SDS011;3369;49.906;8.598;2024-02-04T09:04:17;0.40;;;0.40;;
6665;SDS011;3369;49.906;8.598;2024-02-04T09:06:43;1.20;;;0.50;;
6665;SDS011;3369;49.906;8.598;2024-02-04T09:09:09;0.30;;;0.30;;
6665;SDS011;3369;49.906;8.598;2024-02-04T09:11:34;0.33;;;0.33;;
6665;SDS011;3369;49.906;8.598;2024-02-04T09:14:00;0.40;;;0.40;;
6665;SDS011;3369;49.906;8.598;2024-02-04T09:16:26;0.50;;;0.50;;
6665;SDS011;3369;49.906;8.598;2024-02-04T09:18:52;0.65;;;0.40;;
6665;SDS011;3369;49.906;8.598;2024-02-04T09:21:17;0.50;;;0.45;;
6665;SDS011;3369;49.906;8.598;2024-02-04T09:23:43;0.32;;;0.32;;
6665;SDS011;3369;49.906;8.598;2024-02-04T09:26:08;0.47;;;0.47;;
6665;SDS011;3369;49.906;8.598;2024-02-04T09:28:34;0.47;;;0.47;;
6665;SDS011;3369;49.906;8.598;2024-02-04T09:31:00;0.32;;;0.30;;
6665;SDS011;3369;49.906;8.598;2024-02-04T09:33:26;0.40;;;0.40;;
6665;SDS011;3369;49.906;8.598;2024-02-04T09:35:52;0.40;;;0.40;;
6665;SDS011;3369;49.906;8.598;2024-02-04T09:38:17;0.40;;;0.40;;
6665;SDS011;3369;49.906;8.598;2024-02-04T09:40:43;0.40;;;0.30;;
6665;SDS011;3369;49.906;8.598;2024-02-04T09:43:09;0.40;;;0.40;;
6665;SDS011;3369;49.906;8.598;2024-02-04T09:45:35;0.50;;;0.50;;
6665;SDS011;3369;49.906;8.598;2024-02-04T09:48:01;0.50;;;0.50;;
6665;SDS011;3369;49.906;8.598;2024-02-04T09:50:28;0.70;;;0.47;;
6665;SDS011;3369;49.906;8.598;2024-02-04T09:52:55;1.20;;;0.50;;
6665;SDS011;3369;49.906;8.598;2024-02-04T09:55:25;0.43;;;0.43;;
6665;SDS011;3369;49.906;8.598;2024-02-04T09:57:51;0.50;;;0.50;;
6665;SDS011;3369;49.906;8.598;2024-02-04T10:00:18;0.80;;;0.40;;
6665;SDS011;3369;49.906;8.598;2024-02-04T10:02:47;0.50;;;0.50;;
6665;SDS011;3369;49.906;8.598;2024-02-04T10:05:13;0.60;;;0.50;;
6665;SDS011;3369;49.906;8.598;2024-02-04T10:07:42;0.70;;;0.47;;
6665;SDS011;3369;49.906;8.598;2024-02-04T10:10:08;0.53;;;0.50;;
6665;SDS011;3369;49.906;8.598;2024-02-04T10:12:34;0.63;;;0.60;;
6665;SDS011;3369;49.906;8.598;2024-02-04T10:15:03;0.88;;;0.60;;
6665;SDS011;3369;49.906;8.598;2024-02-04T10:17:30;0.43;;;0.43;;
6665;SDS011;3369;49.906;8.598;2024-02-04T10:19:56;0.90;;;0.60;;
6665;SDS011;3369;49.906;8.598;2024-02-04T10:22:22;0.50;;;0.50;;
6665;SDS011;3369;49.906;8.598;2024-02-04T10:24:48;0.60;;;0.60;;
6665;SDS011;3369;49.906;8.598;2024-02-04T10:27:15;0.57;;;0.50;;
6665;SDS011;3369;49.906;8.598;2024-02-04T10:29:40;0.47;;;0.47;;
6665;SDS011;3369;49.906;8.598;2024-02-04T10:32:06;0.55;;;0.55;;
6665;SDS011;3369;49.906;8.598;2024-02-04T10:34:36;0.55;;;0.47;;
6665;SDS011;3369;49.906;8.598;2024-02-04T10:37:02;0.60;;;0.57;;
6665;SDS011;3369;49.906;8.598;2024-02-04T10:39:28;0.73;;;0.50;;
6665;SDS011;3369;49.906;8.598;2024-02-04T10:41:53;0.50;;;0.50;;
6665;SDS011;3369;49.906;8.598;2024-02-04T10:44:26;0.80;;;0.60;;
6665;SDS011;3369;49.906;8.598;2024-02-04T10:46:58;0.50;;;0.50;;
6665;SDS011;3369;49.906;8.598;2024-02-04T10:49:30;0.70;;;0.70;;
6665;SDS011;3369;49.906;8.598;2024-02-04T10:51:59;0.93;;;0.50;;
6665;SDS011;3369;49.906;8.598;2024-02-04T10:54:26;0.63;;;0.55;;
6665;SDS011;3369;49.906;8.598;2024-02-04T10:56:59;0.50;;;0.50;;
6665;SDS011;3369;49.906;8.598;2024-02-04T10:59:30;0.55;;;0.50;;
6665;SDS011;3369;49.906;8.598;2024-02-04T11:01:57;0.47;;;0.47;;
6665;SDS011;3369;49.906;8.598;2024-02-04T11:04:23;0.50;;;0.50;;
6665;SDS011;3369;49.906;8.598;2024-02-04T11:06:49;0.70;;;0.50;;
6665;SDS011;3369;49.906;8.598;2024-02-04T11:09:17;0.50;;;0.50;;
6665;SDS011;3369;49.906;8.598;2024-02-04T11:11:44;0.50;;;0.50;;
6665;SDS011;3369;49.906;8.598;2024-02-04T11:14:12;0.50;;;0.50;;
6665;SDS011;3369;49.906;8.598;2024-02-04T11:22:08;0.80;;;0.60;;
6665;SDS011;3369;49.906;8.598;2024-02-04T11:27:41;0.50;;;0.50;;
6665;SDS011;3369;49.906;8.598;2024-02-04T11:30:07;0.70;;;0.67;;
6665;SDS011;3369;49.906;8.598;2024-02-04T11:32:35;0.53;;;0.53;;
6665;SDS011;3369;49.906;8.598;2024-02-04T11:35:01;0.57;;;0.57;;
6665;SDS011;3369;49.906;8.598;2024-02-04T11:37:27;0.77;;;0.60;;
6665;SDS011;3369;49.906;8.598;2024-02-04T11:39:54;0.60;;;0.60;;
6665;SDS011;3369;49.906;8.598;2024-02-04T11:42:25;0.60;;;0.60;;
6665;SDS011;3369;49.906;8.598;2024-02-04T11:45:09;0.70;;;0.70;;
6665;SDS011;3369;49.906;8.598;2024-02-04T11:47:36;1.20;;;1.10;;
6665;SDS011;3369;49.906;8.598;2024-02-04T11:50:03;0.65;;;0.65;;
6665;SDS011;3369;49.906;8.598;2024-02-04T11:52:29;0.70;;;0.70;;
6665;SDS011;3369;49.906;8.598;2024-02-04T11:54:54;0.60;;;0.60;;
6665;SDS011;3369;49.906;8.598;2024-02-04T11:57:20;0.90;;;0.90;;
6665;SDS011;3369;49.906;8.598;2024-02-04T11:59:47;0.80;;;0.80;;
6665;SDS011;3369;49.906;8.598;2024-02-04T12:02:16;1.75;;;1.20;;
6665;SDS011;3369;49.906;8.598;2024-02-04T12:04:45;0.73;;;0.73;;
6665;SDS011;3369;49.906;8.598;2024-02-04T12:07:15;0.70;;;0.70;;
6665;SDS011;3369;49.906;8.598;2024-02-04T12:09:42;0.60;;;0.60;;
6665;SDS011;3369;49.906;8.598;2024-02-04T12:12:08;0.60;;;0.60;;
6665;SDS011;3369;49.906;8.598;2024-02-04T12:14:34;0.93;;;0.60;;
6665;SDS011;3369;49.906;8.598;2024-02-04T12:17:06;0.73;;;0.73;;
6665;SDS011;3369;49.906;8.598;2024-02-04T12:19:34;0.88;;;0.88;;
6665;SDS011;3369;49.906;8.598;2024-02-04T12:21:59;0.70;;;0.70;;
6665;SDS011;3369;49.906;8.598;2024-02-04T12:24:25;0.70;;;0.70;;
6665;SDS011;3369;49.906;8.598;2024-02-04T12:26:51;0.63;;;0.63;;
6665;SDS011;3369;49.906;8.598;2024-02-04T12:29:16;0.60;;;0.60;;
6665;SDS011;3369;49.906;8.598;2024-02-04T12:31:42;0.70;;;0.70;;
6665;SDS011;3369;49.906;8.598;2024-02-04T12:34:08;1.10;;;0.70;;
6665;SDS011;3369;49.906;8.598;2024-02-04T12:36:34;0.70;;;0.70;;
6665;SDS011;3369;49.906;8.598;2024-02-04T12:38:59;0.70;;;0.70;;
6665;SDS011;3369;49.906;8.598;2024-02-04T12:41:26;0.80;;;0.80;;
6665;SDS011;3369;49.906;8.598;2024-02-04T12:43:53;0.80;;;0.80;;
6665;SDS011;3369;49.906;8.598;2024-02-04T12:46:24;0.77;;;0.77;;
6665;SDS011;3369;49.906;8.598;2024-02-04T12:48:53;0.70;;;0.70;;
6665;SDS011;3369;49.906;8.598;2024-02-04T12:51:26;0.75;;;0.75;;
6665;SDS011;3369;49.906;8.598;2024-02-04T12:56:49;0.80;;;0.80;;
6665;SDS011;3369;49.906;8.598;2024-02-04T12:59:28;1.05;;;0.75;;
6665;SDS011;3369;49.906;8.598;2024-02-04T13:01:59;0.90;;;0.90;;
6665;SDS011;3369;49.906;8.598;2024-02-04T13:04:38;0.70;;;0.70;;
6665;SDS011;3369;49.906;8.598;2024-02-04T13:07:08;2.20;;;0.90;;
6665;SDS011;3369;49.906;8.598;2024-02-04T13:09:36;0.65;;;0.65;;
6665;SDS011;3369;49.906;8.598;2024-02-04T13:12:03;0.60;;;0.60;;
6665;SDS011;3369;49.906;8.598;2024-02-04T13:14:29;0.60;;;0.60;;
6665;SDS011;3369;49.906;8.598;2024-02-04T13:16:55;0.93;;;0.60;;
6665;SDS011;3369;49.906;8.598;2024-02-04T13:19:20;0.70;;;0.70;;
6665;SDS011;3369;49.906;8.598;2024-02-04T13:21:46;0.70;;;0.70;;
6665;SDS011;3369;49.906;8.598;2024-02-04T13:24:11;0.63;;;0.63;;
6665;SDS011;3369;49.906;8.598;2024-02-04T13:26:37;0.60;;;0.60;;
6665;SDS011;3369;49.906;8.598;2024-02-04T13:29:04;0.80;;;0.80;;
6665;SDS011;3369;49.906;8.598;2024-02-04T13:31:29;0.70;;;0.70;;
6665;SDS011;3369;49.906;8.598;2024-02-04T13:33:55;0.80;;;0.80;;
6665;SDS011;3369;49.906;8.598;2024-02-04T13:36:21;0.73;;;0.73;;
6665;SDS011;3369;49.906;8.598;2024-02-04T13:38:48;0.75;;;0.75;;
6665;SDS011;3369;49.906;8.598;2024-02-04T13:41:13;0.80;;;0.80;;
6665;SDS011;3369;49.906;8.598;2024-02-04T13:43:39;0.60;;;0.60;;
6665;SDS011;3369;49.906;8.598;2024-02-04T13:46:05;0.60;;;0.60;;
6665;SDS011;3369;49.906;8.598;2024-02-04T13:48:30;0.60;;;0.60;;
6665;SDS011;3369;49.906;8.598;2024-02-04T13:50:56;0.55;;;0.55;;
6665;SDS011;3369;49.906;8.598;2024-02-04T13:53:22;0.60;;;0.60;;
6665;SDS011;3369;49.906;8.598;2024-02-04T13:55:48;0.60;;;0.60;;
6665;SDS011;3369;49.906;8.598;2024-02-04T13:58:14;0.60;;;0.60;;
6665;SDS011;3369;49.906;8.598;2024-02-04T14:00:40;0.50;;;0.50;;
6665;SDS011;3369;49.906;8.598;2024-02-04T14:03:06;0.50;;;0.50;;
6665;SDS011;3369;49.906;8.598;2024-02-04T14:05:32;0.50;;;0.50;;
6665;SDS011;3369;49.906;8.598;2024-02-04T14:07:58;0.50;;;0.50;;
6665;SDS011;3369;49.906;8.598;2024-02-04T14:10:23;0.73;;;0.60;;
6665;SDS011;3369;49.906;8.598;2024-02-04T14:12:49;0.63;;;0.63;;
6665;SDS011;3369;49.906;8.598;2024-02-04T14:15:14;0.43;;;0.40;;
6665;SDS011;3369;49.906;8.598;2024-02-04T14:17:41;0.60;;;0.60;;
6665;SDS011;3369;49.906;8.598;2024-02-04T14:20:07;0.50;;;0.50;;
6665;SDS011;3369;49.906;8.598;2024-02-04T14:22:34;0.47;;;0.47;;
6665;SDS011;3369;49.906;8.598;2024-02-04T14:25:00;1.00;;;0.43;;
6665;SDS011;3369;49.906;8.598;2024-02-04T14:27:25;0.50;;;0.50;;
6665;SDS011;3369;49.906;8.598;2024-02-04T14:29:51;0.60;;;0.60;;
6665;SDS011;3369;49.906;8.598;2024-02-04T14:32:17;0.53;;;0.53;;
6665;SDS011;3369;49.906;8.598;2024-02-04T14:34:44;0.50;;;0.50;;
6665;SDS011;3369;49.906;8.598;2024-02-04T14:37:09;0.50;;;0.50;;
6665;SDS011;3369;49.906;8.598;2024-02-04T14:39:36;0.50;;;0.50;;
6665;SDS011;3369;49.906;8.598;2024-02-04T14:42:01;0.40;;;0.40;;
6665;SDS011;3369;49.906;8.598;2024-02-04T14:44:27;0.40;;;0.40;;
6665;SDS011;3369;49.906;8.598;2024-02-04T14:46:54;0.60;;;0.60;;
6665;SDS011;3369;49.906;8.598;2024-02-04T14:49:19;0.40;;;0.40;;
6665;SDS011;3369;49.906;8.598;2024-02-04T14:51:45;0.40;;;0.40;;
6665;SDS011;3369;49.906;8.598;2024-02-04T14:54:11;0.60;;;0.60;;
6665;SDS011;3369;49.906;8.598;2024-02-04T14:56:40;0.60;;;0.60;;
6665;SDS011;3369;49.906;8.598;2024-02-04T14:59:08;0.40;;;0.40;;
6665;SDS011;3369;49.906;8.598;2024-02-04T15:01:34;2.00;;;1.80;;
6665;SDS011;3369;49.906;8.598;2024-02-04T15:04:00;1.70;;;1.33;;
6665;SDS011;3369;49.906;8.598;2024-02-04T15:06:26;0.50;;;0.50;;
6665;SDS011;3369;49.906;8.598;2024-02-04T15:08:51;0.60;;;0.60;;
6665;SDS011;3369;49.906;8.598;2024-02-04T15:11:17;0.50;;;0.50;;
6665;SDS011;3369;49.906;8.598;2024-02-04T15:13:44;0.55;;;0.55;;
6665;SDS011;3369;49.906;8.598;2024-02-04T15:16:10;0.90;;;0.90;;
6665;SDS011;3369;49.906;8.598;2024-02-04T15:18:38;1.58;;;1.48;;
6665;SDS011;3369;49.906;8.598;2024-02-04T15:21:04;1.60;;;1.50;;
6665;SDS011;3369;49.906;8.598;2024-02-04T15:23:30;1.67;;;1.58;;
6665;SDS011;3369;49.906;8.598;2024-02-04T15:25:56;0.90;;;0.90;;
6665;SDS011;3369;49.906;8.598;2024-02-04T15:28:21;0.90;;;0.90;;